Flight Track Log - Related Links

Times and Time Zones

All times are in EDT time to prevent confusion due to time zone crossing. See the SWA1718 flight status page for this flight to view local times or setup timezone preferences in your user account.

Time Position Orientation Groundspeed Altitude Reporting Facility
EDT Latitude Longitude Course Direction KTS MPH feet Rate Location/Type
Fri 07:15:50 AM 41.8167 -87.7500 283° West 182 209 2,800  Level Chicago TRACON
Fri 07:16:44 AM 41.8000 -87.8333 255° West 244 281 3,000 111 Climbing Chicago TRACON
Fri 07:17:38 AM 41.7667 -87.9000 236° Southwest 245 282 3,000  Level Chicago TRACON
Fri 07:18:23 AM 41.7519 -87.9614 252° West 246 283 3,000  Level Chicago Center
Fri 07:19:24 AM 41.7372 -88.0442 257° West 241 277 3,000  Level Chicago Center
Fri 07:20:25 AM 41.7508 -88.1303 282° West 240 276 3,000 246 Level Chicago Center
Fri 07:21:00 AM 41.9215 -88.5954 283° West  Level FlightAware Approximate
Fri 07:21:26 AM 41.7647 -88.2156 282° West 238 274 3,500  Level Chicago Center
Fri 07:22:27 AM 41.7811 -88.3033 284° West 242 278 7,500 3,561 Climbing Chicago Center
Fri 07:23:29 AM 41.7814 -88.3953 270° West 256 295 10,800 2,732 Climbing Chicago Center
Fri 07:24:30 AM 41.7711 -88.4947 262° West 269 310 13,100 2,361 Climbing Chicago Center
Fri 07:25:31 AM 41.7575 -88.6256 262° West 297 342 15,600 2,557 Climbing Chicago Center
Fri 07:26:32 AM 41.7369 -88.7461 257° West 333 383 18,300 2,683 Climbing Chicago Center
Fri 07:27:34 AM 41.7097 -88.8664 253° West 340 391 21,100 2,488 Climbing Chicago Center
Fri 07:28:35 AM 41.6836 -88.9928 255° West 350 403 23,400 2,016 Climbing Chicago Center
Fri 07:29:36 AM 41.6553 -89.1256 254° West 371 427 25,200 1,512 Climbing Chicago Center
Fri 07:30:38 AM 41.6242 -89.2714 254° West 419 482 26,500 1,415 Climbing Chicago Center
Fri 07:31:39 AM 41.5917 -89.4222 254° West 424 488 28,100 1,707 Climbing Chicago Center
Fri 07:32:41 AM 41.5533 -89.6017 254° West 436 502 30,000 1,805 Climbing Chicago Center
Fri 07:33:42 AM 41.5192 -89.7569 254° West 440 506 31,800 1,721 Climbing Chicago Center
Fri 07:34:43 AM 41.4858 -89.9094 254° West 435 501 33,500 1,756 Climbing Chicago Center
Fri 07:35:45 AM 41.4522 -90.0614 254° West 432 497 35,400 1,659 Climbing Chicago Center
Fri 07:36:46 AM 41.4189 -90.2072 253° West 420 483 36,900 1,268 Climbing Chicago Center
Fri 07:37:48 AM 41.3867 -90.3531 254° West 414 476 38,000 537 Climbing Chicago Center
Fri 07:38:49 AM 41.3656 -90.4989 259° West 407 468 38,000  Level Chicago Center
Fri 07:39:51 AM 41.3406 -90.6747 259° West 408 470 38,000  Level Chicago Center
Fri 07:40:52 AM 41.3203 -90.8197 259° West 403 464 38,000  Level Chicago Center
Fri 07:41:54 AM 41.3006 -90.9639 260° West 399 459 38,000  Level Chicago Center
Fri 07:42:55 AM 41.2803 -91.1086 259° West 398 458 38,000  Level Chicago Center
Fri 07:43:57 AM 41.2608 -91.2525 260° West 398 458 38,000  Level Chicago Center
Fri 07:44:58 AM 41.2389 -91.4000 259° West 406 467 38,000  Level Chicago Center
Fri 07:46:00 AM 41.2186 -91.5447 259° West 401 461 38,000  Level Chicago Center
Fri 07:47:01 AM 41.1944 -91.7067 259° West 409 471 38,000  Level Chicago Center
Fri 07:48:03 AM 41.1731 -91.8525 259° West 408 470 38,000  Level Chicago Center
Fri 07:49:04 AM 41.1517 -91.9975 259° West 405 466 38,000  Level Chicago Center
Fri 07:50:06 AM 41.1258 -92.1722 259° West 406 467 38,000  Level Chicago Center
Fri 07:51:07 AM 41.1036 -92.3178 259° West 406 467 38,000  Level Chicago Center
Fri 07:52:09 AM 41.0811 -92.4650 259° West 411 473 38,000  Level Chicago Center
Fri 07:53:10 AM 41.0586 -92.6114 259° West 410 472 38,000  Level Chicago Center
Fri 07:54:12 AM 41.0364 -92.7581 259° West 411 473 38,000  Level Chicago Center
Fri 07:55:02 AM 41.0181 -92.8772 259° West 411 473 38,000  Level Minneapolis Center
Fri 07:56:03 AM 40.9903 -93.0506 258° West 408 470 38,000  Level Minneapolis Center
Fri 07:57:04 AM 40.9675 -93.1939 258° West 405 466 38,000  Level Minneapolis Center
Fri 07:58:05 AM 40.9436 -93.3372 258° West 404 465 38,000  Level Minneapolis Center
Fri 07:59:06 AM 40.9214 -93.4811 258° West 404 465 38,000  Level Minneapolis Center
Fri 08:00:08 AM 40.8972 -93.6272 258° West 408 470 38,000  Level Minneapolis Center
Fri 08:01:09 AM 40.8725 -93.7731 257° West 410 472 38,000  Level Minneapolis Center
Fri 08:02:10 AM 40.8483 -93.9181 258° West 409 471 38,000  Level Minneapolis Center
Fri 08:03:11 AM 40.8186 -94.0947 258° West 411 473 38,000  Level Minneapolis Center
Fri 08:04:13 AM 40.7933 -94.2406 257° West 411 473 38,000  Level Minneapolis Center
Fri 08:05:14 AM 40.7678 -94.3872 257° West 413 475 38,000  Level Minneapolis Center
Fri 08:06:15 AM 40.7425 -94.5319 257° West 412 474 38,000  Level Minneapolis Center
Fri 08:07:16 AM 40.7178 -94.6767 257° West 407 468 38,000  Level Minneapolis Center
Fri 08:08:18 AM 40.6925 -94.8222 257° West 407 468 38,000  Level Minneapolis Center
Fri 08:09:19 AM 40.6672 -94.9675 257° West 407 468 38,000  Level Minneapolis Center
Fri 08:10:20 AM 40.6431 -95.1117 258° West 404 465 38,000  Level Minneapolis Center
Fri 08:11:21 AM 40.6167 -95.2567 257° West 406 467 38,000  Level Minneapolis Center
Fri 08:12:23 AM 40.5900 -95.4042 257° West 410 472 38,000  Level Minneapolis Center
Fri 08:13:24 AM 40.5581 -95.5789 257° West 409 471 38,000  Level Minneapolis Center
Fri 08:14:25 AM 40.5322 -95.7247 257° West 408 470 38,000  Level Minneapolis Center
Fri 08:15:27 AM 40.5058 -95.8689 257° West 406 467 38,000  Level Minneapolis Center
Fri 08:16:28 AM 40.4786 -96.0111 256° West 402 463 38,000  Level Minneapolis Center
Fri 08:17:42 AM 40.4469 -96.1814 256° West 400 460 38,000  Level Minneapolis Center
Fri 08:18:43 AM 40.4197 -96.3264 256° West 405 466 38,000  Level Minneapolis Center
Fri 08:19:44 AM 40.3919 -96.4714 256° West 407 468 38,000  Level Minneapolis Center
Fri 08:20:46 AM 40.3650 -96.6139 256° West 405 466 38,000  Level Minneapolis Center
Fri 08:21:47 AM 40.3372 -96.7572 256° West 405 466 38,000  Level Minneapolis Center
Fri 08:22:48 AM 40.3100 -96.8975 256° West 401 461 38,000  Level Minneapolis Center
Fri 08:23:50 AM 40.2822 -97.0392 256° West 401 461 38,000  Level Minneapolis Center
Fri 08:24:51 AM 40.2481 -97.2106 255° West 404 465 38,000  Level Minneapolis Center
Fri 08:25:53 AM 40.2217 -97.3442 256° West 401 461 38,000  Level Minneapolis Center
Fri 08:26:54 AM 40.1933 -97.4856 255° West 401 461 38,000  Level Minneapolis Center
Fri 08:27:55 AM 40.1658 -97.6264 256° West 399 459 38,000  Level Minneapolis Center
Fri 08:28:57 AM 40.1361 -97.7661 254° West 398 458 38,000  Level Minneapolis Center
Fri 08:29:58 AM 40.1086 -97.9047 255° West 396 456 38,000  Level Minneapolis Center
Fri 08:31:00 AM 40.0789 -98.0444 255° West 397 457 38,000  Level Minneapolis Center
Fri 08:32:01 AM 40.0508 -98.1825 255° West 395 455 38,000  Level Minneapolis Center
Fri 08:33:02 AM 40.0158 -98.3503 255° West 396 456 38,000  Level Minneapolis Center
Fri 08:34:04 AM 39.9864 -98.4883 254° West 396 456 38,000  Level Minneapolis Center
Fri 08:35:05 AM 39.9572 -98.6281 255° West 396 456 38,000  Level Minneapolis Center
Fri 08:36:07 AM 39.9283 -98.7653 255° West 394 453 38,000  Level Minneapolis Center
Fri 08:37:08 AM 39.8989 -98.9017 254° West 392 451 38,000  Level Minneapolis Center
Fri 08:37:25 AM 39.8928 -98.9300 254° West 391 450 38,000  Level Denver Center
Fri 08:38:26 AM 39.8700 -99.0394 255° West 392 451 38,000  Level Denver Center
Fri 08:39:27 AM 39.8339 -99.2039 254° West 392 451 38,000  Level Denver Center
Fri 08:40:28 AM 39.8033 -99.3419 254° West 395 455 38,000  Level Denver Center
Fri 08:41:29 AM 39.7667 -99.5089 254° West 398 458 38,000  Level Denver Center
Fri 08:42:42 AM 39.7364 -99.6478 254° West 400 460 38,000  Level Denver Center
Fri 08:43:43 AM 39.6983 -99.8147 254° West 400 460 38,000  Level Denver Center
Fri 08:44:43 AM 39.6672 -99.9533 254° West 402 463 38,000  Level Denver Center
Fri 08:45:44 AM 39.6372 -100.0872 254° West 403 464 38,000  Level Denver Center
Fri 08:46:57 AM 39.5983 -100.2589 254° West 391 450 38,000  Level Denver Center
Fri 08:47:58 AM 39.5686 -100.3878 253° West 389 448 38,000  Level Denver Center
Fri 08:48:59 AM 39.5389 -100.5161 253° West 388 447 38,000  Level Denver Center
Fri 08:50:00 AM 39.5044 -100.6653 253° West 386 444 38,000  Level Denver Center
Fri 08:51:01 AM 39.4747 -100.7942 253° West 389 448 38,000  Level Denver Center
Fri 08:52:01 AM 39.4444 -100.9225 253° West 390 449 38,000  Level Denver Center
Fri 08:53:02 AM 39.4089 -101.0703 253° West 386 444 38,000  Level Denver Center
Fri 08:54:03 AM 39.3789 -101.1986 253° West 388 447 38,000  Level Denver Center
Fri 08:55:04 AM 39.3486 -101.3261 253° West 387 445 38,000  Level Denver Center
Fri 08:56:05 AM 39.3122 -101.4761 253° West 390 449 38,000  Level Denver Center
Fri 08:57:06 AM 39.2811 -101.6025 252° West 386 444 38,000  Level Denver Center
Fri 08:58:06 AM 39.2508 -101.7322 253° West 392 451 38,000  Level Denver Center
Fri 08:59:07 AM 39.2133 -101.8811 252° West 393 452 38,000  Level Denver Center
Fri 09:00:08 AM 39.1822 -102.0092 253° West 391 450 38,000  Level Denver Center
Fri 09:01:09 AM 39.1506 -102.1353 252° West 388 447 38,000  Level Denver Center
Fri 09:02:10 AM 39.1142 -102.2833 252° West 388 447 38,000  Level Denver Center
Fri 09:03:10 AM 39.0825 -102.4131 253° West 387 445 38,000  Level Denver Center
Fri 09:04:11 AM 39.0506 -102.5397 252° West 390 449 38,000  Level Denver Center
Fri 09:05:12 AM 39.0131 -102.6856 252° West 386 444 38,000  Level Denver Center
Fri 09:06:13 AM 38.9808 -102.8119 252° West 388 447 38,000  Level Denver Center
Fri 09:07:13 AM 38.9469 -102.9447 252° West 387 445 38,000  Level Denver Center
Fri 09:08:14 AM 38.9131 -103.0781 252° West 387 445 38,000  Level Denver Center
Fri 09:09:15 AM 38.8797 -103.2086 252° West 382 440 38,000  Level Denver Center
Fri 09:10:16 AM 38.8450 -103.3386 251° West 382 440 38,000  Level Denver Center
Fri 09:11:17 AM 38.8094 -103.4772 252° West 386 444 38,000  Level Denver Center
Fri 09:12:17 AM 38.7822 -103.5811 251° West 386 444 38,000  Level Denver Center
Fri 09:13:18 AM 38.7442 -103.7258 251° West 385 443 38,000  Level Denver Center
Fri 09:14:19 AM 38.7056 -103.8703 251° West 385 443 38,000  Level Denver Center
Fri 09:15:20 AM 38.6717 -103.9950 251° West 387 445 38,000  Level Denver Center
Fri 09:16:21 AM 38.6361 -104.1311 252° West 391 450 38,000  Level Denver Center
Fri 09:17:22 AM 38.6006 -104.2622 251° West 386 444 38,000  Level Denver Center
Fri 09:18:23 AM 38.5661 -104.3906 251° West 381 438 38,000  Level Denver Center
Fri 09:19:24 AM 38.5303 -104.5219 251° West 385 443 38,000  Level Denver Center
Fri 09:20:25 AM 38.4942 -104.6511 250° West 382 440 38,000  Level Denver Center
Fri 09:21:26 AM 38.4592 -104.7808 251° West 382 440 38,000  Level Denver Center
Fri 09:22:26 AM 38.4239 -104.9097 251° West 381 438 38,000  Level Denver Center
Fri 09:23:27 AM 38.3861 -105.0431 250° West 392 451 38,000  Level Denver Center
Fri 09:24:28 AM 38.3503 -105.1744 251° West 390 449 38,000  Level Denver Center
Fri 09:25:29 AM 38.3103 -105.3161 250° West 394 453 38,000  Level Denver Center
Fri 09:26:30 AM 38.2742 -105.4422 250° West 396 456 38,000  Level Denver Center
Fri 09:27:31 AM 38.2392 -105.5681 251° West 395 455 38,000  Level Denver Center
Fri 09:28:32 AM 38.1969 -105.7144 250° West 395 455 38,000  Level Denver Center
Fri 09:29:33 AM 38.1622 -105.8408 251° West 395 455 38,000  Level Denver Center
Fri 09:30:33 AM 38.1253 -105.9642 249° West 392 451 38,000  Level Denver Center
Fri 09:31:34 AM 38.0850 -106.1056 250° West 382 440 38,000  Level Denver Center
Fri 09:32:35 AM 38.0486 -106.2275 249° West 386 444 38,000  Level Denver Center
Fri 09:33:36 AM 38.0133 -106.3483 250° West 383 441 38,000  Level Denver Center
Fri 09:34:37 AM 37.9722 -106.4914 250° West 387 445 38,000  Level Denver Center
Fri 09:35:38 AM 37.9347 -106.6189 250° West 385 443 38,000  Level Denver Center
Fri 09:36:39 AM 37.8986 -106.7433 250° West 392 451 38,000  Level Denver Center
Fri 09:37:40 AM 37.8603 -106.8681 249° West 397 457 38,000  Level Denver Center
Fri 09:38:41 AM 37.8178 -107.0136 250° West 394 453 38,000  Level Denver Center
Fri 09:39:41 AM 37.7767 -107.1486 249° West 395 455 38,000  Level Denver Center
Fri 09:40:42 AM 37.7392 -107.2719 249° West 392 451 38,000  Level Denver Center
Fri 09:41:43 AM 37.7019 -107.3947 249° West 391 450 38,000  Level Denver Center
Fri 09:42:44 AM 37.6597 -107.5364 249° West 386 444 38,000  Level Denver Center
Fri 09:43:45 AM 37.6222 -107.6600 249° West 391 450 38,000  Level Denver Center
Fri 09:44:46 AM 37.5844 -107.7811 249° West 391 450 38,000  Level Denver Center
Fri 09:45:47 AM 37.5406 -107.9242 249° West 393 452 38,000  Level Denver Center
Fri 09:46:48 AM 37.5042 -108.0442 249° West 386 444 38,000  Level Denver Center
Fri 09:47:49 AM 37.4658 -108.1642 248° West 387 445 38,000  Level Denver Center
Fri 09:48:50 AM 37.4225 -108.3050 249° West 387 445 38,000  Level Denver Center
Fri 09:49:52 AM 37.3847 -108.4253 248° West 387 445 38,000  Level Denver Center
Fri 09:50:53 AM 37.3408 -108.5642 248° West 384 442 38,000  Level Denver Center
Fri 09:51:54 AM 37.3033 -108.6819 248° West 381 438 38,000  Level Denver Center
Fri 09:52:55 AM 37.2658 -108.7981 248° West 379 436 38,000  Level Denver Center
Fri 09:53:56 AM 37.2219 -108.9347 248° West 378 435 38,000  Level Denver Center
Fri 09:54:57 AM 37.1839 -109.0533 248° West 382 440 38,000  Level Denver Center
Fri 09:55:58 AM 37.1464 -109.1714 248° West 382 440 38,000  Level Denver Center
Fri 09:56:59 AM 37.1014 -109.3083 248° West 382 440 38,000  Level Denver Center
Fri 09:58:00 AM 37.0636 -109.4267 248° West 383 441 38,000  Level Denver Center
Fri 09:59:02 AM 37.0181 -109.5653 248° West 386 444 38,000  Level Denver Center
Fri 10:00:03 AM 36.9794 -109.6831 248° West 385 443 38,000  Level Denver Center
Fri 10:01:04 AM 36.9408 -109.7994 247° West 381 438 38,000  Level Denver Center
Fri 10:02:05 AM 36.8958 -109.9353 248° West 379 436 38,000  Level Denver Center
Fri 10:03:06 AM 36.8575 -110.0519 248° West 381 438 38,000  Level Denver Center
Fri 10:04:07 AM 36.8142 -110.1794 247° West 377 434 38,000  Level Denver Center
Fri 10:05:09 AM 36.7744 -110.2989 247° West 374 430 38,000  Level Denver Center
Fri 10:06:10 AM 36.7333 -110.4197 247° West 376 433 38,000  Level Denver Center
Fri 10:07:11 AM 36.6936 -110.5414 248° West 379 436 38,000  Level Denver Center
Fri 10:08:12 AM 36.6511 -110.6644 247° West 384 442 38,000  Level Denver Center
Fri 10:09:14 AM 36.6108 -110.7867 248° West 384 442 38,000  Level Denver Center
Fri 10:10:15 AM 36.5683 -110.9100 247° West 386 444 38,000  Level Denver Center
Fri 10:11:16 AM 36.5264 -111.0331 247° West 387 445 38,000  Level Denver Center
Fri 10:12:18 AM 36.4739 -111.1819 246° West 390 449 38,000  Level Denver Center
Fri 10:13:19 AM 36.4311 -111.3047 247° West 389 448 38,000  Level Denver Center
Fri 10:14:21 AM 36.3881 -111.4306 247° West 394 453 38,000  Level Denver Center
Fri 10:15:22 AM 36.3444 -111.5542 246° West 393 452 38,000  Level Denver Center
Fri 10:16:23 AM 36.3017 -111.6772 247° West 390 449 38,000  Level Denver Center
Fri 10:17:37 AM 36.2581 -111.7981 246° West 386 444 38,000  Level Denver Center
Fri 10:18:39 AM 36.2069 -111.9444 247° West 385 443 38,000  Level Denver Center
Fri 10:18:55 AM 36.1900 -111.9872 244° Southwest 389 448 38,000  Level Los Angeles Center
Fri 10:19:56 AM 36.1453 -112.1139 246° West 399 459 38,000  Level Los Angeles Center
Fri 10:20:58 AM 36.1011 -112.2386 246° West 399 459 38,000  Level Los Angeles Center
Fri 10:22:00 AM 36.0550 -112.3700 247° West 390 449 38,000  Level Los Angeles Center
Fri 10:23:01 AM 36.0108 -112.4914 246° West 387 445 38,000  Level Los Angeles Center
Fri 10:24:03 AM 35.9667 -112.6128 246° West 387 445 38,000  Level Los Angeles Center
Fri 10:25:04 AM 35.9181 -112.7450 246° West 387 445 38,000  Level Los Angeles Center
Fri 10:26:06 AM 35.8747 -112.8650 246° West 386 444 38,000  Level Los Angeles Center
Fri 10:27:08 AM 35.8317 -112.9836 246° West 384 442 38,000  Level Los Angeles Center
Fri 10:28:09 AM 35.7878 -113.1039 246° West 387 445 38,000  Level Los Angeles Center
Fri 10:29:11 AM 35.7433 -113.2242 246° West 390 449 38,000  Level Los Angeles Center
Fri 10:30:13 AM 35.6903 -113.3683 246° West 391 450 38,000  Level Los Angeles Center
Fri 10:31:14 AM 35.6450 -113.4881 245° Southwest 390 449 38,000  Level Los Angeles Center
Fri 10:32:16 AM 35.5992 -113.6081 245° Southwest 391 450 38,000  Level Los Angeles Center
Fri 10:33:18 AM 35.5503 -113.7264 243° Southwest 391 450 38,000  Level Los Angeles Center
Fri 10:34:19 AM 35.5025 -113.8442 244° Southwest 390 449 38,000  Level Los Angeles Center
Fri 10:35:21 AM 35.4453 -113.9844 243° Southwest 388 447 38,000  Level Los Angeles Center
Fri 10:36:23 AM 35.4033 -114.0878 244° Southwest 385 443 38,000  Level Los Angeles Center
Fri 10:37:24 AM 35.3442 -114.2314 243° Southwest 390 449 38,000  Level Los Angeles Center
Fri 10:38:26 AM 35.2944 -114.3528 243° Southwest 395 455 38,000  Level Los Angeles Center
Fri 10:39:27 AM 35.2453 -114.4736 244° Southwest 396 456 38,000  Level Los Angeles Center
Fri 10:40:29 AM 35.1944 -114.5944 243° Southwest 397 457 38,000  Level Los Angeles Center
Fri 10:41:31 AM 35.1442 -114.7178 244° Southwest 403 464 38,000  Level Los Angeles Center
Fri 10:42:32 AM 35.0914 -114.8425 243° Southwest 410 472 38,000  Level Los Angeles Center
Fri 10:43:34 AM 35.0381 -114.9672 242° Southwest 413 475 38,000  Level Los Angeles Center
Fri 10:44:35 AM 34.9861 -115.0914 243° Southwest 410 472 38,000 -293 Level Los Angeles Center
Fri 10:45:37 AM 34.9447 -115.1894 243° Southwest 408 470 37,400 -919 Descending Los Angeles Center
Fri 10:46:39 AM 34.8719 -115.3644 243° Southwest 413 475 36,100 -1,171 Descending Los Angeles Center
Fri 10:47:40 AM 34.8167 -115.4900 242° Southwest 419 482 35,000 -1,073 Descending Los Angeles Center
Fri 10:48:42 AM 34.7717 -115.5972 243° Southwest 413 475 33,900 -484 Descending Los Angeles Center
Fri 10:49:44 AM 34.7183 -115.7200 242° Southwest 410 472 34,000 49 Climbing Los Angeles Center
Fri 10:50:45 AM 34.6550 -115.8681 243° Southwest 412 474 34,000  Level Los Angeles Center
Fri 10:51:47 AM 34.6000 -115.9931 242° Southwest 417 480 34,000  Level Los Angeles Center
Fri 10:52:49 AM 34.5469 -116.1175 243° Southwest 416 479 34,000  Level Los Angeles Center
Fri 10:53:50 AM 34.4933 -116.2397 242° Southwest 413 475 34,000 -439 Level Los Angeles Center
Fri 10:54:52 AM 34.4397 -116.3597 242° Southwest 407 468 33,100 -1,790 Descending Los Angeles Center
Fri 10:55:54 AM 34.3878 -116.4786 242° Southwest 400 460 30,300 -2,537 Descending Los Angeles Center
Fri 10:56:55 AM 34.3347 -116.5978 242° Southwest 402 463 27,900 -2,293 Descending Los Angeles Center
Fri 10:57:57 AM 34.2839 -116.7139 242° Southwest 391 450 25,600 -2,371 Descending Los Angeles Center
Fri 10:58:59 AM 34.2253 -116.8450 242° Southwest 370 426 23,000 -2,226 Descending Los Angeles Center
Fri 11:00:01 AM 34.1783 -116.9508 242° Southwest 361 415 21,000 -1,984 Descending Los Angeles Center
Fri 11:01:03 AM 34.1317 -117.0531 241° Southwest 350 403 18,900 -1,463 Descending Los Angeles Center
Fri 11:02:04 AM 34.0839 -117.1631 242° Southwest 342 394 18,000 -769 Descending Los Angeles Center
Fri 11:02:21 AM 34.0667 -117.2000 241° Southwest 344 396 17,900 -1,636 Descending Southern California TRACON
Fri 11:03:21 AM 34.0500 -117.3000 259° West 326 375 15,900 -2,000 Descending Southern California TRACON
Fri 11:04:21 AM 34.0333 -117.4000 259° West 317 365 13,900 -2,000 Descending Southern California TRACON
Fri 11:05:21 AM 34.0333 -117.5167 270° West 310 357 11,900 -1,632 Descending Southern California TRACON
Fri 11:06:15 AM 34.0333 -117.6000 270° West 304 350 10,800 -1,000 Descending Southern California TRACON
Fri 11:07:15 AM 34.0167 -117.7000 259° West 248 285 10,000 -950 Descending Southern California TRACON
Fri 11:08:15 AM 34.0167 -117.7833 270° West 250 288 8,900 -1,150 Descending Southern California TRACON
Fri 11:09:15 AM 34.0000 -117.8667 256° West 254 292 7,700 -1,095 Descending Southern California TRACON
Fri 11:10:21 AM 34.0000 -117.9500 270° West 260 299 6,600 -1,000 Descending Southern California TRACON
Fri 11:11:21 AM 33.9833 -118.0500 259° West 263 303 5,600 -984 Descending Southern California TRACON
Fri 11:12:23 AM 33.9800 -118.1269 267° West 263 303 4,600 -1,113 Descending Los Angeles Center
Fri 11:13:25 AM 33.9722 -118.2083 263° West 253 291 3,300 -1,258 Descending Los Angeles Center
Fri 11:14:27 AM 33.9642 -118.2808 262° West 233 268 2,000 -1,065 Descending Los Angeles Center
Fri 11:15:29 AM 33.9586 -118.3411 264° West 203 234 1,100 -919 Descending Los Angeles Center
Fri 11:16:31 AM 33.9525 -118.3989 263° West 161 185 100 -968 Descending Los Angeles Center
Fri 11:18:00 AM 33.9333 -118.4000 259° West  Level FlightAware Approximate
Fri 11:25:00 AM 33.9425 -118.4081 259° West  Level Estimated

Login

Don't have an account? Register now (free) for customized features, flight alerts, and more!